createdAt,value
2022-09-15T00:00:53.279Z,99915.97
2022-09-15T00:03:22.273Z,99916.94
2022-09-15T00:05:50.719Z,99910.88
2022-09-15T00:08:19.893Z,99910.25
2022-09-15T00:10:49.079Z,99911.25
2022-09-15T00:13:17.436Z,99913.84
2022-09-15T00:15:45.226Z,99917.69
2022-09-15T00:18:12.974Z,99916.75
2022-09-15T00:20:43.150Z,99916.19
2022-09-15T00:23:11.102Z,99913.44
2022-09-15T00:25:45.905Z,99915.34
2022-09-15T00:28:15.213Z,99918.22
2022-09-15T00:30:46.073Z,99916.59
2022-09-15T00:33:15.097Z,99918.31
2022-09-15T00:35:46.276Z,99915.97
2022-09-15T00:38:15.507Z,99919.41
2022-09-15T00:40:49.691Z,99918.47
2022-09-15T00:43:18.971Z,99916.97
2022-09-15T00:45:46.862Z,99925.97
2022-09-15T00:48:18.632Z,99919.88
2022-09-15T00:50:50.587Z,99927.06
2022-09-15T00:53:20.074Z,99922.03
2022-09-15T00:55:51.500Z,99922.03
2022-09-15T00:58:23.586Z,99926.50
2022-09-15T01:00:56.380Z,99924.91
2022-09-15T01:03:24.843Z,99917.88
2022-09-15T01:05:55.756Z,99928.59
2022-09-15T01:08:30.333Z,99930.41
2022-09-15T01:11:00.432Z,99929.66
2022-09-15T01:13:29.689Z,99931.72
2022-09-15T01:16:16.219Z,99938.91
2022-09-15T01:18:54.855Z,99930.91
2022-09-15T01:21:33.693Z,99936.47
2022-09-15T01:24:45.893Z,99940.91
2022-09-15T01:27:43.176Z,99938.41
2022-09-15T01:30:15.549Z,99935.81
2022-09-15T01:33:06.685Z,99939.47
2022-09-15T01:36:01.857Z,99934.16
2022-09-15T01:38:39.539Z,99933.38
2022-09-15T01:41:13.052Z,99933.47
2022-09-15T01:43:45.531Z,99937.97
2022-09-15T01:46:16.197Z,99943.38
2022-09-15T01:48:44.607Z,99935.53
2022-09-15T01:51:12.881Z,99933.00
2022-09-15T01:53:41.735Z,99940.06
2022-09-15T01:56:12.158Z,99933.97
2022-09-15T01:58:41.590Z,99940.31
2022-09-15T02:01:14.745Z,99938.50
2022-09-15T02:03:47.068Z,99934.88
2022-09-15T02:06:21.661Z,99934.13
2022-09-15T02:08:55.015Z,99939.59
2022-09-15T02:11:30.463Z,99935.28
2022-09-15T02:14:11.373Z,99932.75
2022-09-15T02:16:42.266Z,99932.75
2022-09-15T02:19:18.720Z,99934.56
2022-09-15T02:21:55.784Z,99933.84
2022-09-15T02:24:30.374Z,99939.31
2022-09-15T02:27:00.602Z,99935.72
2022-09-15T02:29:30.036Z,99933.06
2022-09-15T02:32:06.820Z,99933.97
2022-09-15T02:34:42.983Z,99933.31
2022-09-15T02:37:11.756Z,99928.00
2022-09-15T02:39:44.408Z,99932.53
2022-09-15T02:42:12.594Z,99926.34
2022-09-15T02:44:41.277Z,99927.22
2022-09-15T02:47:09.079Z,99932.66
2022-09-15T02:49:38.182Z,99932.66
2022-09-15T02:52:06.184Z,99928.34
2022-09-15T02:54:34.007Z,99923.00
2022-09-15T02:57:01.721Z,99919.50
2022-09-15T02:59:50.541Z,99922.16
2022-09-15T03:02:20.566Z,99922.31
2022-09-15T03:04:50.474Z,99914.25
2022-09-15T03:07:18.882Z,99917.84
2022-09-15T03:09:47.276Z,99913.53
2022-09-15T03:12:14.974Z,99918.84
2022-09-15T03:14:42.902Z,99926.03
2022-09-15T03:17:10.621Z,99926.03
2022-09-15T03:19:38.678Z,99923.53
2022-09-15T03:22:09.467Z,99926.75
2022-09-15T03:24:38.100Z,99929.22
2022-09-15T03:27:06.914Z,99930.66
2022-09-15T03:29:34.707Z,99933.84
2022-09-15T03:32:03.145Z,99932.03
2022-09-15T03:34:30.846Z,99932.09
2022-09-15T03:36:58.671Z,99924.41
2022-09-15T03:39:28.149Z,99933.25
2022-09-15T03:41:56.089Z,99922.53
2022-09-15T03:44:24.381Z,99924.94
2022-09-15T03:46:52.187Z,99926.63
2022-09-15T03:49:20.019Z,99930.41
2022-09-15T03:51:47.766Z,99924.41
2022-09-15T03:54:15.753Z,99921.91
2022-09-15T03:56:47.285Z,99923.75
2022-09-15T03:59:16.025Z,99916.06
2022-09-15T04:01:44.122Z,99917.84
2022-09-15T04:04:12.342Z,99922.47
2022-09-15T04:06:40.251Z,99917.13
2022-09-15T04:09:08.360Z,99923.38
2022-09-15T04:11:36.915Z,99927.88
2022-09-15T04:14:06.272Z,99910.34
2022-09-15T04:16:34.662Z,99920.97
2022-09-15T04:19:02.620Z,99924.72
2022-09-15T04:21:31.736Z,99924.72
2022-09-15T04:23:59.451Z,99923.72
2022-09-15T04:26:29.947Z,99922.06
2022-09-15T04:29:03.068Z,99928.25
2022-09-15T04:31:33.742Z,99918.53
2022-09-15T04:34:01.569Z,99921.13
2022-09-15T04:36:31.359Z,99930.19
2022-09-15T04:38:59.524Z,99930.19
2022-09-15T04:41:27.801Z,99929.41
2022-09-15T04:43:56.139Z,99928.59
2022-09-15T04:46:23.980Z,99931.91
2022-09-15T04:48:53.829Z,99924.72
2022-09-15T04:51:23.015Z,99933.34
2022-09-15T04:53:51.545Z,99934.09
2022-09-15T04:56:21.877Z,99934.03
2022-09-15T04:58:52.049Z,99941.09
2022-09-15T05:01:22.334Z,99933.66
2022-09-15T05:03:50.810Z,99934.13
2022-09-15T05:06:21.460Z,99931.91
2022-09-15T05:08:50.433Z,99929.03
2022-09-15T05:11:19.722Z,99937.59
2022-09-15T05:13:48.184Z,99937.53
2022-09-15T05:16:18.564Z,99940.22
2022-09-15T05:18:48.370Z,99947.13
2022-09-15T05:21:18.100Z,99934.72
2022-09-15T05:23:47.951Z,99939.44
2022-09-15T05:26:17.581Z,99946.84
2022-09-15T05:28:46.147Z,99948.72
2022-09-15T05:31:18.635Z,99946.84
2022-09-15T05:33:46.690Z,99946.13
2022-09-15T05:36:15.825Z,99952.06
2022-09-15T05:38:44.110Z,99950.63
2022-09-15T05:41:17.573Z,99947.78
2022-09-15T05:43:46.346Z,99938.06
2022-09-15T05:46:15.219Z,99943.88
2022-09-15T05:48:43.445Z,99946.38
2022-09-15T05:51:11.147Z,99954.09
2022-09-15T05:53:39.463Z,99957.47
2022-09-15T05:56:10.580Z,99966.75
2022-09-15T05:58:40.356Z,99963.66
2022-09-15T06:01:09.815Z,99951.88
2022-09-15T06:03:37.734Z,99959.19
2022-09-15T06:06:06.851Z,99962.63
2022-09-15T06:08:36.293Z,99958.19
2022-09-15T06:11:06.428Z,99957.00
2022-09-15T06:13:34.506Z,99963.03
2022-09-15T06:16:06.025Z,99958.28
2022-09-15T06:18:34.773Z,99958.75
2022-09-15T06:21:10.615Z,99957.66
2022-09-15T06:23:38.875Z,99962.44
2022-09-15T06:26:09.373Z,99963.47
2022-09-15T06:28:37.363Z,99959.84
2022-09-15T06:31:11.327Z,99970.22
2022-09-15T06:33:43.092Z,99956.50
2022-09-15T06:36:11.676Z,99969.78
2022-09-15T06:38:39.878Z,99970.56
2022-09-15T06:41:07.716Z,99973.94
2022-09-15T06:43:36.345Z,99971.88
2022-09-15T06:46:07.794Z,99979.09
2022-09-15T06:48:36.334Z,99979.97
2022-09-15T06:51:05.574Z,99983.25
2022-09-15T06:53:34.989Z,99977.66
2022-09-15T06:56:04.499Z,99977.22
2022-09-15T06:58:32.929Z,99974.03
2022-09-15T07:01:09.118Z,99974.69
2022-09-15T07:03:38.129Z,99964.41
2022-09-15T07:06:07.104Z,99966.50
2022-09-15T07:08:35.115Z,99970.41
2022-09-15T07:11:02.905Z,99974.81
2022-09-15T07:13:31.395Z,99972.78
2022-09-15T07:16:01.285Z,99969.84
2022-09-15T07:18:31.225Z,99966.69
2022-09-15T07:21:00.902Z,99969.94
2022-09-15T07:23:28.996Z,99978.66
2022-09-15T07:26:06.521Z,99977.25
2022-09-15T07:28:34.365Z,99982.69
2022-09-15T07:31:02.068Z,99978.47
2022-09-15T07:33:31.224Z,99984.78
2022-09-15T07:35:58.945Z,99988.56
2022-09-15T07:38:26.731Z,99992.69
2022-09-15T07:40:54.529Z,99989.75
2022-09-15T07:43:22.353Z,99986.53
2022-09-15T07:45:51.112Z,99983.63
2022-09-15T07:48:21.258Z,99987.84
2022-09-15T07:50:53.482Z,99984.66
2022-09-15T07:53:21.250Z,99995.78
2022-09-15T07:55:53.214Z,100001.84
2022-09-15T07:58:21.099Z,100003.72
2022-09-15T08:00:49.212Z,100003.06
2022-09-15T08:03:17.607Z,100012.00
2022-09-15T08:05:45.999Z,100013.75
2022-09-15T08:08:15.261Z,100008.41
2022-09-15T08:10:42.985Z,100010.63
2022-09-15T08:13:10.668Z,100016.28
2022-09-15T08:15:38.799Z,100014.50
2022-09-15T08:18:07.254Z,100019.97
2022-09-15T08:20:34.929Z,100021.69
2022-09-15T08:23:02.862Z,100012.22
2022-09-15T08:25:32.644Z,100014.25
2022-09-15T08:28:00.554Z,100023.09
2022-09-15T08:30:28.740Z,100014.75
2022-09-15T08:32:57.162Z,100024.28
2022-09-15T08:35:24.918Z,100025.31
2022-09-15T08:37:54.465Z,100028.19
2022-09-15T08:40:27.530Z,100034.94
2022-09-15T08:43:00.386Z,100036.59
2022-09-15T08:45:36.140Z,100029.19
2022-09-15T08:48:08.459Z,100039.16
2022-09-15T08:50:41.733Z,100042.25
2022-09-15T08:53:16.425Z,100033.63
2022-09-15T08:55:48.709Z,100033.94
2022-09-15T08:58:20.136Z,100034.13
2022-09-15T09:00:52.197Z,100036.72
2022-09-15T09:03:55.188Z,100036.06
2022-09-15T09:06:32.404Z,100031.97
2022-09-15T09:09:20.768Z,100036.81
2022-09-15T09:12:15.544Z,100038.34
2022-09-15T09:15:00.795Z,100035.00
2022-09-15T09:17:41.415Z,100023.38
2022-09-15T09:20:27.460Z,100026.34
2022-09-15T09:22:56.012Z,100016.09
2022-09-15T09:25:28.488Z,100023.94
2022-09-15T09:27:58.232Z,100018.75
2022-09-15T09:30:33.079Z,100021.03
2022-09-15T09:33:16.725Z,100030.84
2022-09-15T09:35:45.865Z,100022.03
2022-09-15T09:38:19.762Z,100014.75
2022-09-15T09:40:47.910Z,100016.84
2022-09-15T09:43:16.600Z,100026.81
2022-09-15T09:45:45.984Z,100018.19
2022-09-15T09:48:19.188Z,100014.94
2022-09-15T09:50:47.538Z,100017.44
2022-09-15T09:53:24.504Z,100023.44
2022-09-15T09:55:53.179Z,100022.97
2022-09-15T09:58:23.213Z,100023.81
2022-09-15T10:00:53.060Z,100016.44
2022-09-15T10:03:22.983Z,100011.69
2022-09-15T10:06:06.261Z,100021.72
2022-09-15T10:08:36.282Z,100010.59
2022-09-15T10:11:06.609Z,100017.38
2022-09-15T10:13:36.571Z,100004.31
2022-09-15T10:16:07.667Z,100004.47
2022-09-15T10:18:38.606Z,100004.28
2022-09-15T10:21:10.987Z,100001.03
2022-09-15T10:23:38.747Z,100009.00
2022-09-15T10:26:23.553Z,100003.44
2022-09-15T10:29:12.356Z,100001.53
2022-09-15T10:31:42.765Z,100004.47
2022-09-15T10:34:26.769Z,99999.75
2022-09-15T10:37:00.203Z,100000.69
2022-09-15T10:39:38.755Z,100005.13
2022-09-15T10:42:17.646Z,99998.63
2022-09-15T10:44:55.369Z,100000.41
2022-09-15T10:47:35.099Z,100009.78
2022-09-15T10:50:14.169Z,100002.22
2022-09-15T10:53:04.710Z,100000.09
2022-09-15T10:55:52.896Z,100010.34
2022-09-15T10:58:45.809Z,100005.00
2022-09-15T11:01:38.767Z,99998.50
2022-09-15T11:04:38.575Z,99993.84
2022-09-15T11:07:13.935Z,99998.72
2022-09-15T11:09:45.661Z,100005.63
2022-09-15T11:12:29.416Z,99992.69
2022-09-15T11:15:15.690Z,100003.66
2022-09-15T11:17:59.649Z,100011.09
2022-09-15T11:20:42.157Z,100005.94
2022-09-15T11:23:18.774Z,100011.63
2022-09-15T11:25:50.995Z,100004.63
2022-09-15T11:28:23.698Z,100004.22
2022-09-15T11:31:00.728Z,99997.44
2022-09-15T11:33:33.816Z,99994.44
2022-09-15T11:36:07.763Z,99992.25
2022-09-15T11:38:42.974Z,99996.16
2022-09-15T11:41:31.667Z,100001.16
2022-09-15T11:44:17.822Z,100001.22
2022-09-15T11:47:03.706Z,100012.13
2022-09-15T11:49:38.004Z,100008.75
2022-09-15T11:52:25.993Z,100022.19
2022-09-15T11:55:01.839Z,100026.78
2022-09-15T11:57:36.193Z,100036.53
2022-09-15T12:00:11.290Z,100036.75
2022-09-15T12:02:47.644Z,100033.69
2022-09-15T12:05:20.699Z,100037.06
2022-09-15T12:07:54.362Z,100032.75
2022-09-15T12:10:26.703Z,100034.06
2022-09-15T12:12:55.876Z,100029.13
2022-09-15T12:15:27.433Z,100033.69
2022-09-15T12:18:27.257Z,100029.09
2022-09-15T12:21:01.113Z,100054.38
2022-09-15T12:23:34.636Z,100058.97
2022-09-15T12:26:10.586Z,100055.16
2022-09-15T12:28:54.122Z,100050.56
2022-09-15T12:31:37.080Z,100049.56
2022-09-15T12:34:27.214Z,100047.84
2022-09-15T12:36:55.773Z,100049.47
2022-09-15T12:39:31.418Z,100047.47
2022-09-15T12:42:15.220Z,100049.22
2022-09-15T12:44:47.651Z,100048.38
2022-09-15T12:47:31.754Z,100044.78
2022-09-15T12:50:04.669Z,100037.81
2022-09-15T12:52:35.406Z,100033.53
2022-09-15T12:55:05.563Z,100047.50
2022-09-15T12:57:36.873Z,100045.69
2022-09-15T13:00:42.308Z,100040.72
2022-09-15T13:03:30.122Z,100033.53
2022-09-15T13:06:15.735Z,100027.13
2022-09-15T13:08:49.640Z,100032.28
2022-09-15T13:11:24.150Z,100025.47
2022-09-15T13:13:56.662Z,100030.22
2022-09-15T13:16:30.392Z,100029.69
2022-09-15T13:19:09.700Z,100036.44
2022-09-15T13:21:42.042Z,100027.88
2022-09-15T13:24:20.569Z,100035.94
2022-09-15T13:26:55.592Z,100030.22
2022-09-15T13:29:24.342Z,100030.63
2022-09-15T13:31:56.894Z,100039.69
2022-09-15T13:35:05.768Z,100031.63
2022-09-15T13:38:23.015Z,100023.06
2022-09-15T13:41:20.764Z,100023.16
2022-09-15T13:44:13.244Z,100019.41
2022-09-15T13:46:51.831Z,100015.09
2022-09-15T13:49:35.722Z,100025.19
2022-09-15T13:52:14.751Z,100016.53
2022-09-15T13:55:11.081Z,100020.03
2022-09-15T14:00:33.650Z,100008.47
2022-09-15T14:03:04.313Z,100016.94
2022-09-15T14:05:35.158Z,100015.63
2022-09-15T14:08:08.973Z,100012.03
2022-09-15T14:10:46.353Z,100010.81
2022-09-15T14:13:16.968Z,100006.81
2022-09-15T14:15:59.482Z,100006.84
2022-09-15T14:18:27.634Z,99992.44
2022-09-15T14:21:00.666Z,99992.28
2022-09-15T14:23:29.299Z,99995.22
2022-09-15T14:26:00.174Z,99987.81
2022-09-15T14:28:32.210Z,99992.72
2022-09-15T14:31:02.875Z,99991.34
2022-09-15T14:33:37.945Z,99993.59
2022-09-15T14:36:14.214Z,99995.25
2022-09-15T14:38:42.266Z,99998.81
2022-09-15T14:41:19.909Z,99984.78
2022-09-15T14:43:47.738Z,99982.63
2022-09-15T14:46:20.715Z,99993.19
2022-09-15T14:48:48.583Z,99992.88
2022-09-15T14:51:22.462Z,99993.56
2022-09-15T14:53:53.916Z,99999.25
2022-09-15T14:56:24.980Z,99996.94
2022-09-15T14:58:57.301Z,99998.22
2022-09-15T15:01:33.443Z,99999.09
2022-09-15T15:04:09.743Z,100009.66
2022-09-15T15:06:42.654Z,100006.84
2022-09-15T15:09:21.237Z,100007.31
2022-09-15T15:11:52.509Z,100013.97
2022-09-15T15:14:20.438Z,100011.28
2022-09-15T15:16:54.164Z,100009.66
2022-09-15T15:19:33.095Z,100005.72
2022-09-15T15:22:18.185Z,100012.13
2022-09-15T15:24:49.640Z,100011.47
2022-09-15T15:27:42.918Z,100006.69
2022-09-15T15:30:37.664Z,100020.63
2022-09-15T15:33:19.309Z,100021.63
2022-09-15T15:35:48.569Z,100025.66
2022-09-15T15:38:18.325Z,100022.03
2022-09-15T15:40:47.198Z,100029.00
2022-09-15T15:43:23.436Z,100021.81
2022-09-15T15:45:57.737Z,100014.94
2022-09-15T15:48:30.090Z,100016.81
2022-09-15T15:51:00.439Z,100023.53
2022-09-15T15:53:28.201Z,100017.97
2022-09-15T15:55:57.729Z,100029.34
2022-09-15T15:58:25.525Z,100025.66
2022-09-15T16:00:54.607Z,100028.00
2022-09-15T16:03:23.406Z,100025.81
2022-09-15T16:05:55.046Z,100018.44
2022-09-15T16:08:28.159Z,100019.81
2022-09-15T16:10:57.426Z,100017.75
2022-09-15T16:13:26.184Z,100016.53
2022-09-15T16:15:56.570Z,100018.47
2022-09-15T16:18:24.974Z,100022.81
2022-09-15T16:20:54.926Z,100026.69
2022-09-15T16:23:23.854Z,100019.59
2022-09-15T16:25:55.740Z,100026.69
2022-09-15T16:28:23.513Z,100012.19
2022-09-15T16:30:51.271Z,100021.75
2022-09-15T16:33:19.884Z,100022.72
2022-09-15T16:35:51.232Z,100027.69
2022-09-15T16:38:21.219Z,100027.50
2022-09-15T16:40:49.460Z,100020.28
2022-09-15T16:43:18.971Z,100023.47
2022-09-15T16:45:47.121Z,100025.66
2022-09-15T16:48:15.278Z,100027.78
2022-09-15T16:51:16.791Z,100024.53
2022-09-15T16:53:33.269Z,100023.66
2022-09-15T16:56:01.115Z,100024.81
2022-09-15T16:58:28.901Z,100022.59
2022-09-15T17:00:57.012Z,100021.44
2022-09-15T17:03:26.993Z,100027.53
2022-09-15T17:05:56.503Z,100029.38
2022-09-15T17:08:29.289Z,100020.69
2022-09-15T17:11:00.217Z,100021.44
2022-09-15T17:13:30.530Z,100019.22
2022-09-15T17:15:58.910Z,100023.81
2022-09-15T17:18:27.154Z,100024.28
2022-09-15T17:20:55.277Z,100031.56
2022-09-15T17:23:25.457Z,100034.13
2022-09-15T17:25:57.240Z,100026.63
2022-09-15T17:28:28.812Z,100038.47
2022-09-15T17:30:58.727Z,100039.50
2022-09-15T17:33:27.504Z,100051.34
2022-09-15T17:35:55.500Z,100053.25
2022-09-15T17:38:23.402Z,100055.78
2022-09-15T17:40:52.448Z,100060.66
2022-09-15T17:43:21.800Z,100056.66
2022-09-15T17:45:51.695Z,100065.63
2022-09-15T17:48:20.268Z,100064.00
2022-09-15T17:50:48.933Z,100063.81
2022-09-15T17:53:18.705Z,100076.09
2022-09-15T17:55:46.586Z,100068.97
2022-09-15T17:58:14.473Z,100071.47
2022-09-15T18:00:44.066Z,100070.84
2022-09-15T18:03:20.065Z,100071.97
2022-09-15T18:05:48.077Z,100066.72
2022-09-15T18:08:16.507Z,100070.66
2022-09-15T18:10:44.520Z,100072.06
2022-09-15T18:13:15.728Z,100073.97
2022-09-15T18:15:43.918Z,100074.81
2022-09-15T18:18:16.509Z,100073.97
2022-09-15T18:20:44.819Z,100078.34
2022-09-15T18:23:18.127Z,100083.03
2022-09-15T18:25:47.651Z,100093.91
2022-09-15T18:28:16.077Z,100088.88
2022-09-15T18:30:46.404Z,100087.94
2022-09-15T18:33:18.328Z,100099.56
2022-09-15T18:35:47.748Z,100091.53
2022-09-15T18:38:16.382Z,100102.72
2022-09-15T18:40:49.059Z,100109.63
2022-09-15T18:43:16.986Z,100107.28
2022-09-15T18:45:44.790Z,100111.25
2022-09-15T18:48:13.466Z,100109.81
2022-09-15T18:50:44.607Z,100121.97
2022-09-15T18:53:12.955Z,100116.50
2022-09-15T18:55:42.078Z,100115.78
2022-09-15T18:58:10.270Z,100113.44
2022-09-15T19:00:38.184Z,100113.28
2022-09-15T19:03:09.333Z,100114.59
2022-09-15T19:05:37.617Z,100120.66
2022-09-15T19:08:08.291Z,100121.75
2022-09-15T19:10:36.172Z,100114.47
2022-09-15T19:13:04.848Z,100107.78
2022-09-15T19:15:34.339Z,100111.25
2022-09-15T19:18:02.167Z,100118.72
2022-09-15T19:20:30.965Z,100122.22
2022-09-15T19:22:59.108Z,100120.34
2022-09-15T19:25:28.223Z,100124.13
2022-09-15T19:27:56.112Z,100119.44
2022-09-15T19:30:23.886Z,100125.06
2022-09-15T19:32:52.963Z,100130.25
2022-09-15T19:35:21.285Z,100123.56
2022-09-15T19:37:49.123Z,100123.81
2022-09-15T19:40:17.726Z,100123.66
2022-09-15T19:42:47.272Z,100124.50
2022-09-15T19:45:15.203Z,100129.25
2022-09-15T19:47:43.036Z,100133.00
2022-09-15T19:50:12.745Z,100129.47
2022-09-15T19:52:40.634Z,100124.13
2022-09-15T19:55:09.801Z,100135.72
2022-09-15T19:57:40.254Z,100139.00
2022-09-15T20:00:11.648Z,100132.25
2022-09-15T20:02:40.157Z,100130.41
2022-09-15T20:05:09.221Z,100135.44
2022-09-15T20:07:37.107Z,100139.63
2022-09-15T20:10:05.306Z,100134.75
2022-09-15T20:12:33.373Z,100145.44
2022-09-15T20:15:01.139Z,100144.47
2022-09-15T20:17:30.279Z,100137.19
2022-09-15T20:19:58.060Z,100148.09
2022-09-15T20:22:26.079Z,100150.59
2022-09-15T20:24:56.022Z,100144.97
2022-09-15T20:27:23.854Z,100151.44
2022-09-15T20:29:51.587Z,100147.34
2022-09-15T20:32:22.773Z,100149.31
2022-09-15T20:34:54.143Z,100147.25
2022-09-15T20:37:23.007Z,100148.59
2022-09-15T20:39:51.782Z,100149.84
2022-09-15T20:42:19.821Z,100156.25
2022-09-15T20:44:47.688Z,100158.41
2022-09-15T20:47:16.065Z,100153.84
2022-09-15T20:49:43.852Z,100152.19
2022-09-15T20:52:13.425Z,100152.16
2022-09-15T20:54:41.174Z,100152.25
2022-09-15T20:57:09.585Z,100148.50
2022-09-15T20:59:37.851Z,100147.44
2022-09-15T21:02:06.593Z,100154.50
2022-09-15T21:04:34.692Z,100147.16
2022-09-15T21:07:02.476Z,100156.91
2022-09-15T21:09:31.860Z,100147.16
2022-09-15T21:12:00.060Z,100153.28
2022-09-15T21:14:27.803Z,100154.06
2022-09-15T21:16:55.652Z,100161.19
2022-09-15T21:19:23.477Z,100163.94
2022-09-15T21:21:51.283Z,100161.44
2022-09-15T21:24:19.089Z,100159.41
2022-09-15T21:27:04.715Z,100166.34
2022-09-15T21:29:32.680Z,100167.50
2022-09-15T21:32:00.802Z,100163.34
2022-09-15T21:34:28.989Z,100167.59
2022-09-15T21:36:57.882Z,100166.66
2022-09-15T21:39:25.614Z,100172.50
2022-09-15T21:41:54.716Z,100168.91
2022-09-15T21:44:22.480Z,100170.66
2022-09-15T21:46:52.555Z,100168.91
2022-09-15T21:49:20.282Z,100170.00
2022-09-15T21:51:47.967Z,100172.81
2022-09-15T21:54:15.892Z,100179.06
2022-09-15T21:56:43.586Z,100177.31
2022-09-15T21:59:12.798Z,100183.63
2022-09-15T22:01:41.459Z,100184.03
2022-09-15T22:04:10.359Z,100186.03
2022-09-15T22:06:40.507Z,100188.63
2022-09-15T22:09:10.849Z,100190.38
2022-09-15T22:11:38.806Z,100193.09
2022-09-15T22:14:08.911Z,100183.59
2022-09-15T22:16:39.607Z,100188.56
2022-09-15T22:19:09.657Z,100192.59
2022-09-15T22:21:41.422Z,100201.44
2022-09-15T22:24:11.866Z,100189.53
2022-09-15T22:26:39.755Z,100180.88
2022-09-15T22:29:07.868Z,100191.59
2022-09-15T22:31:36.677Z,100193.53
2022-09-15T22:34:06.195Z,100189.13
2022-09-15T22:36:34.082Z,100194.78
2022-09-15T22:39:03.701Z,100193.91
2022-09-15T22:41:33.270Z,100194.78
2022-09-15T22:44:01.053Z,100193.59
2022-09-15T22:46:28.885Z,100188.97
2022-09-15T22:48:56.728Z,100198.09
2022-09-15T22:51:25.883Z,100191.22
2022-09-15T22:53:57.089Z,100201.25
2022-09-15T22:56:26.510Z,100199.66
2022-09-15T22:58:55.558Z,100204.34
2022-09-15T23:01:25.045Z,100204.06
2022-09-15T23:03:53.701Z,100200.63
2022-09-15T23:06:21.959Z,100207.94
2022-09-15T23:08:52.666Z,100199.47
2022-09-15T23:11:21.311Z,100197.72
2022-09-15T23:13:49.673Z,100204.03
2022-09-15T23:16:18.126Z,100202.34
2022-09-15T23:18:46.358Z,100195.94
2022-09-15T23:21:15.003Z,100197.00
2022-09-15T23:23:45.367Z,100202.47
2022-09-15T23:26:15.094Z,100195.63
2022-09-15T23:28:43.104Z,100198.28
2022-09-15T23:31:13.002Z,100194.06
2022-09-15T23:33:41.106Z,100197.53
2022-09-15T23:36:11.941Z,100191.59
2022-09-15T23:38:41.195Z,100193.09
2022-09-15T23:41:09.843Z,100186.03
2022-09-15T23:43:39.079Z,100182.56
2022-09-15T23:46:07.422Z,100183.31
2022-09-15T23:48:35.250Z,100187.75
2022-09-15T23:51:03.740Z,100182.88
2022-09-15T23:53:31.503Z,100184.03
2022-09-15T23:55:59.437Z,100182.75
2022-09-15T23:58:29.882Z,100179.44
